Time;durP1;ratioP1;P1;durP2;ratioP2;P2;SDS_P1;SDS_P2;PMS_P1;PMS_P2;Temp;Humidity;BMP_temperature;BMP_pressure;BME280_temperature;BME280_humidity;BME280_pressure;Samples;Min_cycle;Max_cycle;Signal;HPM_P1;HPM_P2
2023/05/09 00:00:43;;;;;;;1.10;1.00;;;;;;;;;;5020893;28;20079;-45
2023/05/09 00:03:11;;;;;;;1.15;1.10;;;;;;;;;;5024950;28;20531;-45
2023/05/09 00:05:37;;;;;;;2.38;1.30;;;;;;;;;;5021140;28;20111;-43
2023/05/09 00:08:02;;;;;;;0.98;0.98;;;;;;;;;;5024637;28;20090;-42
2023/05/09 00:10:28;;;;;;;1.15;1.10;;;;;;;;;;5022877;28;20561;-44
2023/05/09 00:12:53;;;;;;;2.55;1.00;;;;;;;;;;5023225;28;20037;-44
2023/05/09 00:15:19;;;;;;;5.10;1.15;;;;;;;;;;5023452;28;20037;-42
2023/05/09 00:17:45;;;;;;;1.42;1.00;;;;;;;;;;5023454;28;20045;-43
2023/05/09 00:20:11;;;;;;;6.63;0.95;;;;;;;;;;5020635;28;20033;-49
2023/05/09 00:22:41;;;;;;;0.93;0.88;;;;;;;;;;5019690;28;20497;-44
2023/05/09 00:25:08;;;;;;;0.90;0.90;;;;;;;;;;5024490;28;20033;-44
2023/05/09 00:27:34;;;;;;;5.07;1.10;;;;;;;;;;5023294;28;20041;-42
2023/05/09 00:29:59;;;;;;;1.65;0.90;;;;;;;;;;5022697;28;20458;-45
2023/05/09 00:32:25;;;;;;;0.90;0.90;;;;;;;;;;5021979;28;20048;-49
2023/05/09 00:34:51;;;;;;;3.30;1.20;;;;;;;;;;5025642;28;20069;-48
2023/05/09 00:37:18;;;;;;;1.90;0.93;;;;;;;;;;5023087;28;20063;-41
2023/05/09 00:39:44;;;;;;;4.22;1.10;;;;;;;;;;5020076;28;20037;-47
2023/05/09 00:42:10;;;;;;;1.65;1.20;;;;;;;;;;5025387;28;20391;-44
2023/05/09 00:44:35;;;;;;;1.13;1.02;;;;;;;;;;5022443;28;20036;-42
2023/05/09 00:47:01;;;;;;;1.13;1.08;;;;;;;;;;5022291;28;20045;-47
2023/05/09 00:49:26;;;;;;;1.60;0.98;;;;;;;;;;5022379;28;20036;-48
2023/05/09 00:51:52;;;;;;;0.98;0.98;;;;;;;;;;5023838;28;20033;-47
2023/05/09 00:54:17;;;;;;;1.40;1.00;;;;;;;;;;5021809;28;20088;-49
2023/05/09 00:56:44;;;;;;;1.00;1.00;;;;;;;;;;5022573;28;20049;-49
2023/05/09 00:59:09;;;;;;;4.07;0.90;;;;;;;;;;5022329;28;20045;-42
2023/05/09 01:01:35;;;;;;;5.15;1.40;;;;;;;;;;5023230;28;20025;-42
2023/05/09 01:04:00;;;;;;;1.33;1.08;;;;;;;;;;5023478;28;20033;-46
2023/05/09 01:06:31;;;;;;;2.25;1.33;;;;;;;;;;5025073;28;20038;-46
2023/05/09 01:09:21;;;;;;;1.85;1.15;;;;;;;;;;5019985;28;20037;-48
2023/05/09 01:11:58;;;;;;;2.03;1.00;;;;;;;;;;5021663;28;20510;-45
2023/05/09 01:14:39;;;;;;;1.20;1.10;;;;;;;;;;5020885;28;20038;-43
2023/05/09 01:17:26;;;;;;;3.50;1.20;;;;;;;;;;5023603;28;22519;-43
2023/05/09 01:19:58;;;;;;;9.13;1.10;;;;;;;;;;5022789;28;20079;-44
2023/05/09 01:22:29;;;;;;;1.45;1.35;;;;;;;;;;5020885;28;20042;-45
2023/05/09 01:25:04;;;;;;;0.85;0.85;;;;;;;;;;5025418;28;20079;-48
2023/05/09 01:27:47;;;;;;;2.88;1.13;;;;;;;;;;5020133;28;20034;-43
2023/05/09 01:30:14;;;;;;;3.60;1.08;;;;;;;;;;5020621;28;20022;-47
2023/05/09 01:32:42;;;;;;;1.20;1.10;;;;;;;;;;5020688;28;20145;-47
2023/05/09 01:35:13;;;;;;;3.60;1.33;;;;;;;;;;5025100;28;20075;-46
2023/05/09 01:37:41;;;;;;;1.52;1.23;;;;;;;;;;5021764;28;20073;-47
2023/05/09 01:40:20;;;;;;;1.00;1.00;;;;;;;;;;5022279;28;20064;-46
2023/05/09 01:42:57;;;;;;;1.50;1.10;;;;;;;;;;5022357;28;20046;-48
2023/05/09 01:45:23;;;;;;;3.35;1.10;;;;;;;;;;5019588;28;20079;-47
2023/05/09 01:47:49;;;;;;;3.05;1.30;;;;;;;;;;5021840;28;20438;-44
2023/05/09 01:50:17;;;;;;;1.10;1.10;;;;;;;;;;5022658;28;20041;-43
2023/05/09 01:52:46;;;;;;;3.55;1.20;;;;;;;;;;5021818;28;20533;-42
2023/05/09 01:55:14;;;;;;;1.60;1.20;;;;;;;;;;5023194;28;20029;-44
2023/05/09 01:57:42;;;;;;;1.60;0.93;;;;;;;;;;5022867;28;20041;-44
2023/05/09 02:00:11;;;;;;;1.35;1.08;;;;;;;;;;5019733;28;20034;-50
2023/05/09 02:02:37;;;;;;;2.78;1.35;;;;;;;;;;5020425;28;20095;-49
2023/05/09 02:05:04;;;;;;;1.23;1.10;;;;;;;;;;5018958;28;20037;-44
2023/05/09 02:07:30;;;;;;;1.63;1.23;;;;;;;;;;5022818;28;20602;-47
2023/05/09 02:09:57;;;;;;;1.20;1.10;;;;;;;;;;5023488;28;20033;-48
2023/05/09 02:12:23;;;;;;;1.30;1.20;;;;;;;;;;5020871;28;20095;-46
2023/05/09 02:14:49;;;;;;;3.70;1.10;;;;;;;;;;5019141;28;20026;-47
2023/05/09 02:17:15;;;;;;;1.98;1.17;;;;;;;;;;5020765;28;20088;-43
2023/05/09 02:19:42;;;;;;;1.42;1.33;;;;;;;;;;5019698;28;20033;-48
2023/05/09 02:22:07;;;;;;;3.28;1.40;;;;;;;;;;5019179;28;20065;-46
2023/05/09 02:24:33;;;;;;;2.70;1.23;;;;;;;;;;5019927;28;20061;-51
2023/05/09 02:27:00;;;;;;;2.90;1.30;;;;;;;;;;5019866;28;20046;-48
2023/05/09 02:29:38;;;;;;;1.85;1.25;;;;;;;;;;5023069;28;20095;-47
2023/05/09 02:32:08;;;;;;;2.70;1.40;;;;;;;;;;5022631;28;20132;-45
2023/05/09 02:34:35;;;;;;;1.00;0.98;;;;;;;;;;5022162;28;20025;-43
2023/05/09 02:37:02;;;;;;;3.17;1.40;;;;;;;;;;5021671;28;20049;-44
2023/05/09 02:39:27;;;;;;;1.38;1.25;;;;;;;;;;5020502;28;20038;-50
2023/05/09 02:41:53;;;;;;;2.97;1.17;;;;;;;;;;5022869;28;20087;-45
2023/05/09 02:44:18;;;;;;;3.97;1.20;;;;;;;;;;5022749;28;20034;-44
2023/05/09 02:46:43;;;;;;;5.47;1.48;;;;;;;;;;5020061;28;20452;-42
2023/05/09 02:49:09;;;;;;;4.80;1.38;;;;;;;;;;5023425;28;20057;-42
2023/05/09 02:51:35;;;;;;;5.72;1.35;;;;;;;;;;5021011;28;20046;-44
2023/05/09 02:54:00;;;;;;;1.20;1.10;;;;;;;;;;5023070;28;20044;-44
2023/05/09 02:56:25;;;;;;;4.25;1.23;;;;;;;;;;5022814;28;20043;-44
2023/05/09 02:58:51;;;;;;;1.52;1.20;;;;;;;;;;5020850;28;20482;-42
2023/05/09 03:01:17;;;;;;;1.95;1.67;;;;;;;;;;5021590;28;20080;-42
2023/05/09 03:03:42;;;;;;;2.75;1.50;;;;;;;;;;5021688;28;20086;-44
2023/05/09 03:06:08;;;;;;;1.67;1.30;;;;;;;;;;5025338;28;20456;-42
2023/05/09 03:08:33;;;;;;;4.30;1.42;;;;;;;;;;5026596;28;20029;-46
2023/05/09 03:10:58;;;;;;;1.98;1.20;;;;;;;;;;5023331;28;20521;-45
2023/05/09 03:13:24;;;;;;;2.47;1.20;;;;;;;;;;5025761;28;20040;-42
2023/05/09 03:15:50;;;;;;;1.45;1.30;;;;;;;;;;5025483;28;20099;-47
2023/05/09 03:18:15;;;;;;;2.92;1.10;;;;;;;;;;5025582;28;20386;-42
2023/05/09 03:20:40;;;;;;;1.80;1.20;;;;;;;;;;5027111;28;20042;-47
2023/05/09 03:23:06;;;;;;;1.35;1.20;;;;;;;;;;5025065;28;20036;-42
2023/05/09 03:25:31;;;;;;;2.67;1.42;;;;;;;;;;5025599;28;20394;-44
2023/05/09 03:27:56;;;;;;;2.15;1.55;;;;;;;;;;5025614;28;20187;-41
2023/05/09 03:30:22;;;;;;;1.95;1.33;;;;;;;;;;5026004;28;20040;-42
2023/05/09 03:32:47;;;;;;;3.55;1.40;;;;;;;;;;5025204;28;20044;-42
2023/05/09 03:35:12;;;;;;;3.72;1.20;;;;;;;;;;5027424;28;20026;-44
2023/05/09 03:37:38;;;;;;;6.53;1.27;;;;;;;;;;5024264;28;20445;-42
2023/05/09 03:40:05;;;;;;;3.33;1.45;;;;;;;;;;5025560;28;20028;-49
2023/05/09 03:42:30;;;;;;;2.15;1.50;;;;;;;;;;5023162;28;20053;-43
2023/05/09 03:44:56;;;;;;;1.40;1.27;;;;;;;;;;5024803;28;20034;-41
2023/05/09 03:47:21;;;;;;;2.80;1.23;;;;;;;;;;5022781;28;20046;-45
2023/05/09 03:49:47;;;;;;;1.20;1.20;;;;;;;;;;5026233;28;20502;-43
2023/05/09 03:52:13;;;;;;;2.58;1.90;;;;;;;;;;5025920;28;20056;-47
2023/05/09 03:54:38;;;;;;;1.30;1.20;;;;;;;;;;5023548;28;20030;-46
2023/05/09 03:57:04;;;;;;;1.60;1.50;;;;;;;;;;5023920;28;20044;-43
2023/05/09 03:59:29;;;;;;;1.38;1.27;;;;;;;;;;5024803;28;20050;-42
2023/05/09 04:01:55;;;;;;;1.10;1.10;;;;;;;;;;5021155;28;20416;-43
2023/05/09 04:04:20;;;;;;;5.50;1.65;;;;;;;;;;5023552;28;20044;-42
2023/05/09 04:06:46;;;;;;;6.82;1.60;;;;;;;;;;5025476;28;20040;-43
2023/05/09 04:09:11;;;;;;;1.98;1.50;;;;;;;;;;5021098;28;20532;-46
2023/05/09 04:11:36;;;;;;;3.45;1.58;;;;;;;;;;5022009;28;20642;-43
2023/05/09 04:14:05;;;;;;;5.05;1.40;;;;;;;;;;5022318;28;20394;-43
2023/05/09 04:16:31;;;;;;;8.18;1.45;;;;;;;;;;5022469;28;20544;-42
2023/05/09 04:18:56;;;;;;;3.00;1.40;;;;;;;;;;5019923;28;20038;-43
2023/05/09 04:21:22;;;;;;;1.40;1.20;;;;;;;;;;5021167;28;20061;-44
2023/05/09 04:23:47;;;;;;;1.58;1.38;;;;;;;;;;5022497;28;20084;-43
2023/05/09 04:26:13;;;;;;;1.88;1.40;;;;;;;;;;5023344;28;20042;-45
2023/05/09 04:28:38;;;;;;;1.40;1.30;;;;;;;;;;5024024;28;20478;-42
2023/05/09 04:31:03;;;;;;;7.03;1.67;;;;;;;;;;5021126;28;20095;-42
2023/05/09 04:33:29;;;;;;;4.00;1.80;;;;;;;;;;5021831;28;20040;-47
2023/05/09 04:35:56;;;;;;;1.45;1.35;;;;;;;;;;5021881;28;20491;-43
2023/05/09 04:38:22;;;;;;;2.35;1.42;;;;;;;;;;5024762;28;20076;-44
2023/05/09 04:40:48;;;;;;;2.10;1.27;;;;;;;;;;5021721;28;20053;-44
2023/05/09 04:43:15;;;;;;;1.60;1.40;;;;;;;;;;5016937;28;20057;-45
2023/05/09 04:45:41;;;;;;;1.58;1.48;;;;;;;;;;5018980;28;20107;-43
2023/05/09 04:48:06;;;;;;;2.22;1.73;;;;;;;;;;5021224;28;20033;-46
2023/05/09 04:50:31;;;;;;;5.20;1.77;;;;;;;;;;5020808;28;20075;-44
2023/05/09 04:52:57;;;;;;;1.50;1.40;;;;;;;;;;5022868;28;20389;-43
2023/05/09 04:55:22;;;;;;;3.53;1.75;;;;;;;;;;5022098;28;20103;-45
2023/05/09 04:57:47;;;;;;;1.50;1.38;;;;;;;;;;5025888;28;20121;-44
2023/05/09 05:00:14;;;;;;;3.38;1.40;;;;;;;;;;5022897;28;20364;-45
2023/05/09 05:02:40;;;;;;;3.72;1.70;;;;;;;;;;5022154;28;20080;-43
2023/05/09 05:05:06;;;;;;;3.13;1.92;;;;;;;;;;5023188;28;20458;-45
2023/05/09 05:07:31;;;;;;;3.53;2.15;;;;;;;;;;5018688;28;20037;-44
2023/05/09 05:09:56;;;;;;;1.73;1.63;;;;;;;;;;5024000;28;20021;-41
2023/05/09 05:12:22;;;;;;;4.93;2.00;;;;;;;;;;5021099;28;20041;-46
2023/05/09 05:14:47;;;;;;;4.82;1.85;;;;;;;;;;5023329;28;20652;-42
2023/05/09 05:17:12;;;;;;;5.13;1.75;;;;;;;;;;5018142;28;20045;-43
2023/05/09 05:19:38;;;;;;;12.98;1.55;;;;;;;;;;5022913;28;20090;-44
2023/05/09 05:22:03;;;;;;;3.17;1.90;;;;;;;;;;5022928;28;20119;-45
2023/05/09 05:24:29;;;;;;;1.48;1.38;;;;;;;;;;5021288;28;20037;-42
2023/05/09 05:26:54;;;;;;;2.55;1.30;;;;;;;;;;5025013;28;20036;-45
2023/05/09 05:29:19;;;;;;;3.10;1.65;;;;;;;;;;5023739;28;20021;-49
2023/05/09 05:31:45;;;;;;;1.70;1.58;;;;;;;;;;5021457;28;20037;-48
2023/05/09 05:34:10;;;;;;;6.15;1.60;;;;;;;;;;5024091;28;20086;-42
2023/05/09 05:36:36;;;;;;;2.15;1.58;;;;;;;;;;5020596;28;20049;-44
2023/05/09 05:39:01;;;;;;;1.83;1.65;;;;;;;;;;5021540;28;20099;-44
2023/05/09 05:41:26;;;;;;;1.45;1.38;;;;;;;;;;5021416;28;20046;-44
2023/05/09 05:43:52;;;;;;;3.17;1.85;;;;;;;;;;5022654;28;20124;-48
2023/05/09 05:46:17;;;;;;;2.17;1.85;;;;;;;;;;5021669;28;20041;-44
2023/05/09 05:48:42;;;;;;;6.18;2.00;;;;;;;;;;5023329;28;20041;-47
2023/05/09 05:51:08;;;;;;;2.42;1.70;;;;;;;;;;5022685;28;20483;-44
2023/05/09 05:53:33;;;;;;;2.47;1.92;;;;;;;;;;5020277;28;20033;-43
2023/05/09 05:55:59;;;;;;;6.30;1.70;;;;;;;;;;5022154;28;20038;-48
2023/05/09 05:58:24;;;;;;;4.60;2.25;;;;;;;;;;5022375;28;20042;-45
2023/05/09 06:00:51;;;;;;;4.25;1.80;;;;;;;;;;5021050;28;20151;-48
2023/05/09 06:03:16;;;;;;;4.65;2.08;;;;;;;;;;5021512;28;20156;-43
2023/05/09 06:05:46;;;;;;;4.03;1.88;;;;;;;;;;5020989;28;20433;-43
2023/05/09 06:08:12;;;;;;;6.05;1.95;;;;;;;;;;5020247;28;20021;-44
2023/05/09 06:10:37;;;;;;;5.47;1.50;;;;;;;;;;5020886;28;20036;-43
2023/05/09 06:13:02;;;;;;;1.70;1.60;;;;;;;;;;5017765;28;20022;-46
2023/05/09 06:15:28;;;;;;;4.68;1.80;;;;;;;;;;5021137;28;20410;-49
2023/05/09 06:17:53;;;;;;;3.20;2.25;;;;;;;;;;5021503;28;20068;-48
2023/05/09 06:20:18;;;;;;;1.80;1.70;;;;;;;;;;5017871;28;20119;-46
2023/05/09 06:22:44;;;;;;;4.82;1.50;;;;;;;;;;5019667;28;20026;-47
2023/05/09 06:25:09;;;;;;;1.88;1.50;;;;;;;;;;5021611;28;20041;-43
2023/05/09 06:27:35;;;;;;;1.60;1.50;;;;;;;;;;5023342;28;20087;-49
2023/05/09 06:30:00;;;;;;;1.77;1.60;;;;;;;;;;5021871;28;20041;-45
2023/05/09 06:32:26;;;;;;;5.45;1.73;;;;;;;;;;5021053;28;20045;-45
2023/05/09 06:34:51;;;;;;;3.33;1.60;;;;;;;;;;5021406;28;20033;-44
2023/05/09 06:37:17;;;;;;;3.15;2.20;;;;;;;;;;5023122;28;21177;-47
2023/05/09 06:39:43;;;;;;;5.80;1.63;;;;;;;;;;5028819;28;20022;-47
2023/05/09 06:42:08;;;;;;;4.32;2.13;;;;;;;;;;5026502;28;20038;-44
2023/05/09 06:44:34;;;;;;;11.85;1.83;;;;;;;;;;5028661;28;20469;-48
2023/05/09 06:47:00;;;;;;;6.13;1.77;;;;;;;;;;5026165;28;20041;-45
2023/05/09 06:49:25;;;;;;;4.63;1.75;;;;;;;;;;5028903;28;20025;-45
2023/05/09 06:51:51;;;;;;;6.40;1.92;;;;;;;;;;5027724;28;20045;-48
2023/05/09 06:54:16;;;;;;;3.33;1.40;;;;;;;;;;5027736;28;20679;-48
2023/05/09 06:56:41;;;;;;;5.95;1.90;;;;;;;;;;5028980;28;20111;-46
2023/05/09 06:59:11;;;;;;;2.30;1.77;;;;;;;;;;5026863;28;20091;-51
2023/05/09 07:01:37;;;;;;;5.60;1.88;;;;;;;;;;5025518;28;20099;-48
2023/05/09 07:04:02;;;;;;;5.07;2.13;;;;;;;;;;5021166;28;20486;-45
2023/05/09 07:06:29;;;;;;;2.20;1.98;;;;;;;;;;5023847;28;20091;-42
2023/05/09 07:08:54;;;;;;;3.80;1.73;;;;;;;;;;5025766;28;20030;-46
2023/05/09 07:11:20;;;;;;;2.78;1.60;;;;;;;;;;5027514;28;20061;-48
2023/05/09 07:13:45;;;;;;;4.28;2.00;;;;;;;;;;5028438;28;20092;-47
2023/05/09 07:16:11;;;;;;;2.88;1.70;;;;;;;;;;5028069;28;20061;-47
2023/05/09 07:18:36;;;;;;;3.05;2.00;;;;;;;;;;5031259;28;20048;-46
2023/05/09 07:21:02;;;;;;;5.18;2.08;;;;;;;;;;5025424;28;20050;-45
2023/05/09 07:23:27;;;;;;;5.30;1.90;;;;;;;;;;5029948;28;20108;-45
2023/05/09 07:25:57;;;;;;;2.85;1.80;;;;;;;;;;5025500;28;20037;-51
2023/05/09 07:28:22;;;;;;;5.00;1.98;;;;;;;;;;5028830;28;20025;-48
2023/05/09 07:30:48;;;;;;;3.22;2.08;;;;;;;;;;5026566;28;20047;-46
2023/05/09 07:33:13;;;;;;;7.65;2.33;;;;;;;;;;5028984;28;20135;-47
2023/05/09 07:35:39;;;;;;;2.33;2.10;;;;;;;;;;5027914;28;20037;-49
2023/05/09 07:38:05;;;;;;;2.63;2.40;;;;;;;;;;5024939;28;20405;-47
2023/05/09 07:40:32;;;;;;;3.63;2.38;;;;;;;;;;5024693;28;20040;-44
2023/05/09 07:42:57;;;;;;;2.55;2.00;;;;;;;;;;5028327;28;20029;-47
2023/05/09 07:45:23;;;;;;;2.38;2.17;;;;;;;;;;5029060;28;20029;-52
2023/05/09 07:47:48;;;;;;;2.10;1.90;;;;;;;;;;5028404;28;20033;-50
2023/05/09 07:50:14;;;;;;;3.78;1.80;;;;;;;;;;5023015;28;20030;-45
2023/05/09 07:52:39;;;;;;;3.95;1.80;;;;;;;;;;5022079;28;20048;-48
2023/05/09 07:55:05;;;;;;;7.80;2.25;;;;;;;;;;5024575;28;20144;-49
2023/05/09 07:57:31;;;;;;;3.78;2.22;;;;;;;;;;5018988;28;20099;-48
2023/05/09 07:59:56;;;;;;;4.22;1.75;;;;;;;;;;5025453;28;20049;-52
2023/05/09 08:02:21;;;;;;;1.80;1.70;;;;;;;;;;5022688;28;20045;-50
2023/05/09 08:04:47;;;;;;;1.88;1.77;;;;;;;;;;5021199;28;21701;-50
2023/05/09 08:07:13;;;;;;;1.75;1.63;;;;;;;;;;5024596;28;20046;-43
2023/05/09 08:09:38;;;;;;;5.07;1.77;;;;;;;;;;5023217;28;20034;-43
2023/05/09 08:12:04;;;;;;;5.47;1.88;;;;;;;;;;5023073;28;20045;-44
2023/05/09 08:14:30;;;;;;;1.80;1.65;;;;;;;;;;5025685;28;20064;-47
2023/05/09 08:16:55;;;;;;;5.85;1.70;;;;;;;;;;5026649;28;20128;-44
2023/05/09 08:19:23;;;;;;;5.95;1.83;;;;;;;;;;5023833;28;20022;-46
2023/05/09 08:21:48;;;;;;;2.03;1.60;;;;;;;;;;5023418;28;20042;-48
2023/05/09 08:24:14;;;;;;;4.97;1.70;;;;;;;;;;5022292;28;20041;-53
2023/05/09 08:26:39;;;;;;;7.97;2.58;;;;;;;;;;5020137;28;20033;-49
2023/05/09 08:29:04;;;;;;;4.35;2.10;;;;;;;;;;5020677;28;20384;-49
2023/05/09 08:31:30;;;;;;;4.32;1.73;;;;;;;;;;5021332;28;20034;-43
2023/05/09 08:33:56;;;;;;;2.83;1.90;;;;;;;;;;5022731;28;20034;-47
2023/05/09 08:36:21;;;;;;;3.20;1.67;;;;;;;;;;5020872;28;20053;-46
2023/05/09 08:38:46;;;;;;;12.70;2.22;;;;;;;;;;5023992;28;20032;-43
2023/05/09 08:41:12;;;;;;;3.47;2.10;;;;;;;;;;5025123;28;20131;-44
2023/05/09 08:43:39;;;;;;;7.72;2.03;;;;;;;;;;5022940;28;20055;-45
2023/05/09 08:46:08;;;;;;;2.97;1.80;;;;;;;;;;5023554;28;20077;-43
2023/05/09 08:48:37;;;;;;;3.15;1.90;;;;;;;;;;5021390;28;20036;-45
2023/05/09 08:51:06;;;;;;;8.43;2.05;;;;;;;;;;5022082;28;20117;-47
2023/05/09 08:53:32;;;;;;;8.90;2.30;;;;;;;;;;5023046;28;20083;-45
2023/05/09 08:56:00;;;;;;;8.60;1.98;;;;;;;;;;5020646;28;20037;-43
2023/05/09 08:58:25;;;;;;;6.50;1.88;;;;;;;;;;5018515;28;20041;-46
2023/05/09 09:00:52;;;;;;;6.78;2.67;;;;;;;;;;5021365;28;20038;-44
2023/05/09 09:03:17;;;;;;;2.30;2.10;;;;;;;;;;5021690;28;20033;-43
2023/05/09 09:05:43;;;;;;;7.07;1.90;;;;;;;;;;5023990;28;20038;-42
2023/05/09 09:08:09;;;;;;;5.45;3.58;;;;;;;;;;5018252;28;20029;-45
2023/05/09 09:10:40;;;;;;;5.65;1.85;;;;;;;;;;5021543;28;20045;-45
2023/05/09 09:13:07;;;;;;;5.97;1.88;;;;;;;;;;5020292;28;20123;-47
2023/05/09 09:15:37;;;;;;;3.20;1.90;;;;;;;;;;5022728;28;21325;-49
2023/05/09 09:18:08;;;;;;;4.45;2.20;;;;;;;;;;5019576;28;20121;-45
2023/05/09 09:20:39;;;;;;;7.40;2.45;;;;;;;;;;5022061;28;20406;-42
2023/05/09 09:23:09;;;;;;;5.28;2.40;;;;;;;;;;5020238;28;20059;-42
2023/05/09 09:25:35;;;;;;;3.72;2.00;;;;;;;;;;5021198;28;20033;-44
2023/05/09 09:28:00;;;;;;;3.15;2.35;;;;;;;;;;5023160;28;20063;-43
2023/05/09 09:30:25;;;;;;;2.90;2.10;;;;;;;;;;5020780;28;20524;-49
2023/05/09 09:32:51;;;;;;;2.85;2.40;;;;;;;;;;5021343;28;20064;-48
2023/05/09 09:35:16;;;;;;;5.88;2.22;;;;;;;;;;5020863;28;20628;-43
2023/05/09 09:37:42;;;;;;;5.13;2.08;;;;;;;;;;5018211;28;20373;-42
2023/05/09 09:40:09;;;;;;;2.85;2.30;;;;;;;;;;5022525;28;20026;-43
2023/05/09 09:42:41;;;;;;;4.78;2.10;;;;;;;;;;5020480;28;20089;-43
2023/05/09 09:45:18;;;;;;;6.45;2.22;;;;;;;;;;5020856;28;20033;-48
2023/05/09 09:47:45;;;;;;;3.85;2.05;;;;;;;;;;5022916;28;20095;-43
2023/05/09 09:50:15;;;;;;;3.88;2.22;;;;;;;;;;5022794;28;20159;-46
2023/05/09 09:52:42;;;;;;;6.00;2.53;;;;;;;;;;5021781;28;20080;-46
2023/05/09 09:55:08;;;;;;;5.57;1.98;;;;;;;;;;5021972;28;20568;-43
2023/05/09 09:57:35;;;;;;;6.97;1.80;;;;;;;;;;5021639;28;20120;-48
2023/05/09 10:00:02;;;;;;;1.70;1.60;;;;;;;;;;5021387;28;20160;-43
2023/05/09 10:02:27;;;;;;;3.40;2.20;;;;;;;;;;5021854;28;20038;-44
2023/05/09 10:04:53;;;;;;;1.92;1.70;;;;;;;;;;5021051;28;20049;-48
2023/05/09 10:07:22;;;;;;;3.72;1.98;;;;;;;;;;5020257;28;20076;-45
2023/05/09 10:09:48;;;;;;;5.32;1.92;;;;;;;;;;5020741;28;20036;-45
2023/05/09 10:12:18;;;;;;;2.90;1.73;;;;;;;;;;5021480;28;20094;-45
2023/05/09 10:14:44;;;;;;;3.10;2.00;;;;;;;;;;5019839;28;20418;-43
2023/05/09 10:17:13;;;;;;;5.82;1.48;;;;;;;;;;5021129;28;20041;-41
2023/05/09 10:19:43;;;;;;;2.55;1.40;;;;;;;;;;5022599;28;20048;-41
2023/05/09 10:22:10;;;;;;;7.28;1.85;;;;;;;;;;5021369;28;20042;-44
2023/05/09 10:24:45;;;;;;;2.63;1.73;;;;;;;;;;5015225;28;20033;-47
2023/05/09 10:27:11;;;;;;;3.35;1.90;;;;;;;;;;5022704;28;20042;-42
2023/05/09 10:29:43;;;;;;;3.05;1.83;;;;;;;;;;5020078;28;20029;-44
2023/05/09 10:32:17;;;;;;;4.13;1.50;;;;;;;;;;5022010;28;20102;-42
2023/05/09 10:34:47;;;;;;;2.53;1.50;;;;;;;;;;5021605;28;20057;-42
2023/05/09 10:37:14;;;;;;;4.47;2.08;;;;;;;;;;5020831;28;20041;-47
2023/05/09 10:39:41;;;;;;;3.03;1.65;;;;;;;;;;5024028;28;20359;-47
2023/05/09 10:42:07;;;;;;;3.70;1.70;;;;;;;;;;5022127;28;20041;-44
2023/05/09 10:44:33;;;;;;;5.90;1.50;;;;;;;;;;5021023;28;20026;-48
2023/05/09 10:47:00;;;;;;;16.42;1.95;;;;;;;;;;5019517;28;20045;-48
2023/05/09 10:49:26;;;;;;;1.60;1.45;;;;;;;;;;5021328;28;20405;-43
2023/05/09 10:51:51;;;;;;;3.13;1.63;;;;;;;;;;5023275;28;20046;-44
2023/05/09 10:54:28;;;;;;;3.92;1.70;;;;;;;;;;5023225;28;20040;-46
2023/05/09 10:56:55;;;;;;;1.40;1.30;;;;;;;;;;5023318;28;20038;-44
2023/05/09 10:59:41;;;;;;;1.83;1.42;;;;;;;;;;5021469;28;20670;-45
2023/05/09 11:02:19;;;;;;;2.05;1.63;;;;;;;;;;5016314;28;20045;-46
2023/05/09 11:04:45;;;;;;;5.72;1.50;;;;;;;;;;5020648;28;20602;-46
2023/05/09 11:07:40;;;;;;;4.55;1.40;;;;;;;;;;5021537;28;20115;-42
2023/05/09 11:10:13;;;;;;;5.32;2.20;;;;;;;;;;5009819;28;20056;-50
2023/05/09 11:12:56;;;;;;;4.07;1.70;;;;;;;;;;5019357;28;20053;-44
2023/05/09 11:15:21;;;;;;;4.97;1.75;;;;;;;;;;5022073;28;20030;-48
2023/05/09 11:18:03;;;;;;;8.40;2.38;;;;;;;;;;5021026;28;20056;-46
2023/05/09 11:20:28;;;;;;;10.00;2.20;;;;;;;;;;5022841;28;20034;-45
2023/05/09 11:22:56;;;;;;;3.85;2.10;;;;;;;;;;5021798;28;20044;-44
2023/05/09 11:25:27;;;;;;;3.22;1.77;;;;;;;;;;5022339;28;20061;-48
2023/05/09 11:27:58;;;;;;;3.90;1.90;;;;;;;;;;5023850;28;20021;-50
2023/05/09 11:30:35;;;;;;;2.95;1.90;;;;;;;;;;5022217;28;20121;-42
2023/05/09 11:33:01;;;;;;;4.57;2.25;;;;;;;;;;5024285;28;20052;-43
2023/05/09 11:35:26;;;;;;;4.55;2.55;;;;;;;;;;5024788;28;20021;-46
2023/05/09 11:37:58;;;;;;;7.85;2.20;;;;;;;;;;5026202;28;20021;-46
2023/05/09 11:40:25;;;;;;;7.78;2.30;;;;;;;;;;5023653;28;20580;-44
2023/05/09 11:42:53;;;;;;;8.52;2.28;;;;;;;;;;5024360;28;22207;-47
2023/05/09 11:45:19;;;;;;;5.57;2.20;;;;;;;;;;5021877;28;20071;-49
2023/05/09 11:47:46;;;;;;;4.75;2.20;;;;;;;;;;5023329;28;20049;-46
2023/05/09 11:50:13;;;;;;;6.38;2.13;;;;;;;;;;5024211;28;20056;-42
2023/05/09 11:52:40;;;;;;;4.90;2.42;;;;;;;;;;5021127;28;20092;-42
2023/05/09 11:55:08;;;;;;;4.97;2.58;;;;;;;;;;5027387;28;20037;-47
2023/05/09 11:57:35;;;;;;;8.75;2.85;;;;;;;;;;5026744;28;20040;-49
2023/05/09 12:00:03;;;;;;;6.70;2.50;;;;;;;;;;5026879;28;20057;-46
2023/05/09 12:02:29;;;;;;;6.72;2.58;;;;;;;;;;5022876;28;20099;-50
2023/05/09 12:04:54;;;;;;;4.85;2.30;;;;;;;;;;5022192;28;20034;-46
2023/05/09 12:07:20;;;;;;;5.60;2.50;;;;;;;;;;5023983;28;20748;-45
2023/05/09 12:09:48;;;;;;;6.80;2.40;;;;;;;;;;5025353;28;20070;-49
2023/05/09 12:12:13;;;;;;;7.95;2.25;;;;;;;;;;5024748;28;20038;-43
2023/05/09 12:14:40;;;;;;;4.72;2.47;;;;;;;;;;5027127;28;20034;-48
2023/05/09 12:17:08;;;;;;;8.98;2.30;;;;;;;;;;5024395;28;20780;-44
2023/05/09 12:19:34;;;;;;;7.82;2.45;;;;;;;;;;5025707;28;20083;-42
2023/05/09 12:22:01;;;;;;;10.30;2.50;;;;;;;;;;5023356;28;20379;-44
2023/05/09 12:24:28;;;;;;;4.47;2.20;;;;;;;;;;5024953;28;20124;-43
2023/05/09 12:26:55;;;;;;;8.27;2.30;;;;;;;;;;5021765;28;20041;-46
2023/05/09 12:29:21;;;;;;;3.60;2.00;;;;;;;;;;5025627;28;20087;-45
2023/05/09 12:31:48;;;;;;;12.48;2.20;;;;;;;;;;5019056;28;20116;-48
2023/05/09 12:34:13;;;;;;;3.25;1.92;;;;;;;;;;5026991;28;20470;-48
2023/05/09 12:36:39;;;;;;;3.70;1.90;;;;;;;;;;5021726;28;20052;-46
2023/05/09 12:39:12;;;;;;;2.72;2.05;;;;;;;;;;5023340;28;20376;-48
2023/05/09 12:41:48;;;;;;;2.92;2.13;;;;;;;;;;5019544;28;20045;-45
2023/05/09 12:44:21;;;;;;;4.05;2.05;;;;;;;;;;5022829;28;20113;-48
2023/05/09 12:46:57;;;;;;;9.30;2.10;;;;;;;;;;5020968;28;20046;-51
2023/05/09 12:49:23;;;;;;;2.70;1.98;;;;;;;;;;5021228;28;20022;-46
2023/05/09 12:51:49;;;;;;;7.82;2.65;;;;;;;;;;5021957;28;20564;-47
2023/05/09 12:54:26;;;;;;;7.22;2.55;;;;;;;;;;5026376;28;20038;-51
2023/05/09 12:56:52;;;;;;;8.38;2.90;;;;;;;;;;5022269;28;20079;-48
2023/05/09 12:59:23;;;;;;;22.63;2.60;;;;;;;;;;5024622;28;20037;-49
2023/05/09 13:01:56;;;;;;;4.65;2.45;;;;;;;;;;5023442;28;20050;-42
2023/05/09 13:04:22;;;;;;;4.82;2.65;;;;;;;;;;5022283;28;20030;-43
2023/05/09 13:06:54;;;;;;;3.78;2.30;;;;;;;;;;5022201;28;20132;-44
2023/05/09 13:09:23;;;;;;;10.38;2.83;;;;;;;;;;5018916;28;20032;-43
2023/05/09 13:11:49;;;;;;;5.00;2.50;;;;;;;;;;5020548;28;20049;-42
2023/05/09 13:14:16;;;;;;;5.15;2.40;;;;;;;;;;5021577;28;20037;-44
2023/05/09 13:16:42;;;;;;;6.45;2.40;;;;;;;;;;5019769;28;20098;-43
2023/05/09 13:19:07;;;;;;;7.05;2.38;;;;;;;;;;5026153;28;20034;-47
2023/05/09 13:21:33;;;;;;;4.20;1.90;;;;;;;;;;5020928;28;20125;-42
2023/05/09 13:23:59;;;;;;;4.00;2.13;;;;;;;;;;5024688;28;20040;-44
2023/05/09 13:26:26;;;;;;;2.63;1.90;;;;;;;;;;5024373;28;20036;-43
2023/05/09 13:28:51;;;;;;;3.53;2.15;;;;;;;;;;5020722;28;20125;-48
2023/05/09 13:31:17;;;;;;;8.27;3.97;;;;;;;;;;5022326;28;20124;-41
2023/05/09 13:33:43;;;;;;;7.95;2.33;;;;;;;;;;5022438;28;20386;-42
2023/05/09 13:36:08;;;;;;;6.82;2.40;;;;;;;;;;5020630;28;20042;-43
2023/05/09 13:38:37;;;;;;;12.60;2.60;;;;;;;;;;5022596;28;20432;-43
2023/05/09 13:41:03;;;;;;;5.60;2.53;;;;;;;;;;5021674;28;20124;-43
2023/05/09 13:43:28;;;;;;;6.65;2.40;;;;;;;;;;5021837;28;20450;-42
2023/05/09 13:45:54;;;;;;;4.25;2.15;;;;;;;;;;5020356;28;20041;-46
2023/05/09 13:48:19;;;;;;;12.40;2.80;;;;;;;;;;5021555;28;20375;-45
2023/05/09 13:50:45;;;;;;;3.75;1.90;;;;;;;;;;5019989;28;20410;-44
2023/05/09 13:53:11;;;;;;;7.47;2.13;;;;;;;;;;5021362;28;20025;-42
2023/05/09 13:55:36;;;;;;;7.20;1.70;;;;;;;;;;5020391;28;20052;-44
2023/05/09 13:58:02;;;;;;;6.13;2.10;;;;;;;;;;5021812;28;22095;-42
2023/05/09 14:00:27;;;;;;;6.68;1.67;;;;;;;;;;5022052;28;20040;-44
2023/05/09 14:02:53;;;;;;;6.93;2.00;;;;;;;;;;5020110;28;20042;-42
2023/05/09 14:05:18;;;;;;;4.00;1.73;;;;;;;;;;5019119;28;20030;-45
2023/05/09 14:07:44;;;;;;;5.45;1.63;;;;;;;;;;5019323;28;20033;-50
2023/05/09 14:10:10;;;;;;;4.15;1.67;;;;;;;;;;5017959;28;20383;-44
2023/05/09 14:12:38;;;;;;;3.05;1.63;;;;;;;;;;5022841;28;20041;-42
2023/05/09 14:15:05;;;;;;;4.05;1.85;;;;;;;;;;5023613;28;20055;-42
2023/05/09 14:17:30;;;;;;;5.75;1.63;;;;;;;;;;5020529;28;20045;-42
2023/05/09 14:19:55;;;;;;;4.65;1.55;;;;;;;;;;5019450;28;20144;-46
2023/05/09 14:22:21;;;;;;;5.10;1.60;;;;;;;;;;5021610;28;20049;-41
2023/05/09 14:24:47;;;;;;;15.85;1.75;;;;;;;;;;5020298;28;20055;-43
2023/05/09 14:27:12;;;;;;;3.15;1.70;;;;;;;;;;5017728;28;20040;-42
2023/05/09 14:29:39;;;;;;;5.45;2.75;;;;;;;;;;5023560;28;20073;-44
2023/05/09 14:32:06;;;;;;;2.25;1.50;;;;;;;;;;5021771;28;20410;-41
2023/05/09 14:34:31;;;;;;;5.47;1.27;;;;;;;;;;5017590;28;20057;-41
2023/05/09 14:36:57;;;;;;;3.25;1.38;;;;;;;;;;5021928;28;20073;-43
2023/05/09 14:39:22;;;;;;;3.65;1.30;;;;;;;;;;5019948;28;20475;-49
2023/05/09 14:41:49;;;;;;;10.13;1.30;;;;;;;;;;5020228;28;20505;-43